createdAt,value
2022-08-08T00:00:55.311Z,47.80
2022-08-08T00:03:42.303Z,48.00
2022-08-08T00:07:47.823Z,48.00
2022-08-08T00:12:09.933Z,48.20
2022-08-08T00:16:14.778Z,48.50
2022-08-08T00:20:40.103Z,48.80
2022-08-08T00:24:45.036Z,49.40
2022-08-08T00:28:49.665Z,48.90
2022-08-08T00:33:09.781Z,49.20
2022-08-08T00:37:47.484Z,49.00
2022-08-08T00:42:08.905Z,49.40
2022-08-08T00:46:17.031Z,49.60
2022-08-08T00:50:48.326Z,49.80
2022-08-08T00:54:59.392Z,50.00
2022-08-08T00:59:44.032Z,50.30
2022-08-08T01:03:58.096Z,50.20
2022-08-08T01:08:05.691Z,50.60
2022-08-08T01:12:29.443Z,50.40
2022-08-08T01:16:47.528Z,50.80
2022-08-08T01:21:09.526Z,51.20
2022-08-08T01:25:46.493Z,51.50
2022-08-08T01:29:59.369Z,51.70
2022-08-08T01:34:39.622Z,51.60
2022-08-08T01:39:18.456Z,51.60
2022-08-08T01:43:23.367Z,51.90
2022-08-08T01:48:23.709Z,52.00
2022-08-08T01:54:04.387Z,52.20
2022-08-08T01:56:46.704Z,52.50
2022-08-08T02:00:57.340Z,52.90
2022-08-08T02:05:03.975Z,53.40
2022-08-08T02:09:18.049Z,53.60
2022-08-08T02:13:52.772Z,54.00
2022-08-08T02:17:42.387Z,54.00
2022-08-08T02:22:07.049Z,54.20
2022-08-08T02:26:16.715Z,54.70
2022-08-08T02:30:49.690Z,55.00
2022-08-08T02:35:10.837Z,55.00
2022-08-08T02:39:42.808Z,55.10
2022-08-08T02:44:37.592Z,55.40
2022-08-08T02:48:25.768Z,55.90
2022-08-08T02:52:41.673Z,56.50
2022-08-08T02:56:58.934Z,56.80
2022-08-08T03:01:28.163Z,57.20
2022-08-08T03:05:46.575Z,57.80
2022-08-08T03:10:17.629Z,58.40
2022-08-08T03:15:55.990Z,58.60
2022-08-08T03:18:36.539Z,59.00
2022-08-08T03:22:43.396Z,59.40
2022-08-08T03:26:51.498Z,59.80
2022-08-08T03:31:07.815Z,60.40
2022-08-08T03:34:56.562Z,60.70
2022-08-08T03:39:15.080Z,62.10
2022-08-08T03:43:18.112Z,62.80
2022-08-08T03:47:14.002Z,63.70
2022-08-08T03:51:08.471Z,64.00
2022-08-08T03:55:54.808Z,64.30
2022-08-08T03:59:22.705Z,64.60
2022-08-08T04:03:18.488Z,65.40
2022-08-08T04:07:22.611Z,66.30
2022-08-08T04:11:25.499Z,67.00
2022-08-08T04:15:38.227Z,69.10
2022-08-08T04:19:30.276Z,70.20
2022-08-08T04:24:05.733Z,71.20
2022-08-08T04:28:02.479Z,71.60
2022-08-08T04:31:59.144Z,74.80
2022-08-08T04:35:46.930Z,77.80
2022-08-08T04:40:05.664Z,79.20
2022-08-08T04:43:54.248Z,81.50
2022-08-08T04:47:53.716Z,82.40
2022-08-08T04:51:57.564Z,82.10
2022-08-08T04:55:58.501Z,78.00
2022-08-08T05:00:02.278Z,75.00
2022-08-08T05:04:10.501Z,74.80
2022-08-08T05:08:06.941Z,74.30
2022-08-08T05:12:10.475Z,72.00
2022-08-08T05:16:52.052Z,70.50
2022-08-08T05:20:16.725Z,68.60
2022-08-08T05:24:17.855Z,69.50
2022-08-08T05:28:48.071Z,70.60
2022-08-08T05:32:27.609Z,70.70
2022-08-08T05:36:30.727Z,70.90
2022-08-08T05:40:34.446Z,69.80
2022-08-08T05:44:39.600Z,69.80
2022-08-08T05:48:43.336Z,71.00
2022-08-08T05:52:47.474Z,69.70
2022-08-08T05:56:52.317Z,69.00
2022-08-08T06:00:57.102Z,68.90
2022-08-08T06:05:06.758Z,68.40
2022-08-08T06:09:57.963Z,67.30
2022-08-08T06:13:12.279Z,67.40
2022-08-08T06:17:19.404Z,66.90
2022-08-08T06:21:28.449Z,65.60
2022-08-08T06:26:36.233Z,64.80
2022-08-08T06:29:59.264Z,64.00
2022-08-08T06:34:25.460Z,62.70
2022-08-08T06:37:55.967Z,62.40
2022-08-08T06:42:02.489Z,60.80
2022-08-08T06:46:08.996Z,61.90
2022-08-08T06:50:09.998Z,62.10
2022-08-08T06:54:13.626Z,60.70
2022-08-08T06:58:15.279Z,59.90
2022-08-08T07:02:29.386Z,59.50
2022-08-08T07:06:31.192Z,60.30
2022-08-08T07:10:39.598Z,59.60
2022-08-08T07:14:51.637Z,59.20
2022-08-08T07:19:00.329Z,58.90
2022-08-08T07:23:23.630Z,58.10
2022-08-08T07:27:35.054Z,56.60
2022-08-08T07:31:29.718Z,55.90
2022-08-08T07:35:35.763Z,56.00
2022-08-08T07:39:56.292Z,55.40
2022-08-08T07:43:43.262Z,54.50
2022-08-08T07:47:49.172Z,54.30
2022-08-08T07:51:53.618Z,53.70
2022-08-08T07:55:56.072Z,53.40
2022-08-08T08:00:15.821Z,53.20
2022-08-08T08:04:14.493Z,53.10
2022-08-08T08:08:27.092Z,52.30
2022-08-08T08:12:35.085Z,51.50
2022-08-08T08:16:41.008Z,51.60
2022-08-08T08:20:42.912Z,51.30
2022-08-08T08:24:46.715Z,50.40
2022-08-08T08:28:48.364Z,49.90
2022-08-08T08:32:51.844Z,49.70
2022-08-08T08:36:54.870Z,49.30
2022-08-08T08:40:56.597Z,48.50
2022-08-08T08:44:59.731Z,48.00
2022-08-08T08:49:01.345Z,47.90
2022-08-08T08:53:26.834Z,45.70
2022-08-08T08:57:15.895Z,46.10
2022-08-08T09:01:16.402Z,45.90
2022-08-08T09:05:48.844Z,45.00
2022-08-08T09:09:39.453Z,43.90
2022-08-08T09:13:29.739Z,45.20
2022-08-08T09:17:41.511Z,45.10
2022-08-08T09:22:00.532Z,42.30
2022-08-08T09:26:03.049Z,42.50
2022-08-08T09:30:07.985Z,41.70
2022-08-08T09:34:31.513Z,42.00
2022-08-08T09:38:33.016Z,41.20
2022-08-08T09:42:44.105Z,41.70
2022-08-08T09:46:45.173Z,41.00
2022-08-08T09:50:50.293Z,40.30
2022-08-08T09:54:51.116Z,38.60
2022-08-08T09:58:58.741Z,38.30
2022-08-08T10:03:03.555Z,39.20
2022-08-08T10:07:07.575Z,38.70
2022-08-08T10:12:22.317Z,38.00
2022-08-08T10:15:17.518Z,38.60
2022-08-08T10:19:15.164Z,38.60
2022-08-08T10:23:41.818Z,38.10
2022-08-08T10:27:29.090Z,38.20
2022-08-08T10:31:53.065Z,39.20
2022-08-08T10:36:09.339Z,37.90
2022-08-08T10:40:17.024Z,37.20
2022-08-08T10:44:20.033Z,37.50
2022-08-08T10:48:25.358Z,36.40
2022-08-08T10:52:31.983Z,36.40
2022-08-08T10:56:35.468Z,36.40
2022-08-08T11:00:53.136Z,36.60
2022-08-08T11:04:53.148Z,36.20
2022-08-08T11:08:53.718Z,36.50
2022-08-08T11:13:27.793Z,35.50
2022-08-08T11:17:02.631Z,36.30
2022-08-08T11:21:10.075Z,35.80
2022-08-08T11:25:14.419Z,35.80
2022-08-08T11:29:16.640Z,36.30
2022-08-08T11:33:19.193Z,35.90
2022-08-08T11:38:37.030Z,35.70
2022-08-08T11:41:32.245Z,35.20
2022-08-08T11:45:36.727Z,35.40
2022-08-08T11:49:34.375Z,35.40
2022-08-08T11:53:50.618Z,35.30
2022-08-08T11:57:40.123Z,35.00
2022-08-08T12:01:41.425Z,34.60
2022-08-08T12:05:42.688Z,35.20
2022-08-08T12:09:59.577Z,34.00
2022-08-08T12:14:04.127Z,33.70
2022-08-08T12:17:51.860Z,34.00
2022-08-08T12:21:59.334Z,35.00
2022-08-08T12:26:17.230Z,33.50
2022-08-08T12:30:18.378Z,33.10
2022-08-08T12:34:19.314Z,32.80
2022-08-08T12:38:20.682Z,32.60
2022-08-08T12:42:33.028Z,33.00
2022-08-08T12:46:28.834Z,33.50
2022-08-08T12:50:42.474Z,33.20
2022-08-08T12:54:47.464Z,33.70
2022-08-08T12:58:54.347Z,32.70
2022-08-08T13:03:00.796Z,33.20
2022-08-08T13:07:04.457Z,33.00
2022-08-08T13:11:19.219Z,32.90
2022-08-08T13:15:21.725Z,32.40
2022-08-08T13:19:24.379Z,32.40
2022-08-08T13:23:30.778Z,32.60
2022-08-08T13:27:35.407Z,32.10
2022-08-08T13:31:33.979Z,32.00
2022-08-08T13:35:41.052Z,31.80
2022-08-08T13:39:41.314Z,32.00
2022-08-08T13:43:46.562Z,33.00
2022-08-08T13:48:02.113Z,32.20
2022-08-08T13:52:05.769Z,31.60
2022-08-08T13:56:11.359Z,31.40
2022-08-08T14:00:18.326Z,31.60
2022-08-08T14:04:21.827Z,32.00
2022-08-08T14:08:29.885Z,32.00
2022-08-08T14:12:30.883Z,31.90
2022-08-08T14:16:33.635Z,32.10
2022-08-08T14:20:57.612Z,31.10
2022-08-08T14:24:52.232Z,31.30
2022-08-08T14:29:01.524Z,31.80
2022-08-08T14:33:12.873Z,31.80
2022-08-08T14:37:08.769Z,31.30
2022-08-08T14:41:18.591Z,31.80
2022-08-08T14:45:26.809Z,31.20
2022-08-08T14:49:51.617Z,31.80
2022-08-08T14:53:55.090Z,31.30
2022-08-08T14:58:06.057Z,30.50
2022-08-08T15:01:56.401Z,31.00
2022-08-08T15:05:59.166Z,31.60
2022-08-08T15:10:02.900Z,31.60
2022-08-08T15:14:09.897Z,31.90
2022-08-08T15:18:12.668Z,31.30
2022-08-08T15:22:23.339Z,32.00
2022-08-08T15:26:19.771Z,32.00
2022-08-08T15:30:23.144Z,31.50
2022-08-08T15:34:30.087Z,32.10
2022-08-08T15:38:28.884Z,32.40
2022-08-08T15:42:36.763Z,32.40
2022-08-08T15:46:45.152Z,31.70
2022-08-08T15:51:06.523Z,32.40
2022-08-08T15:55:09.971Z,32.20
2022-08-08T15:59:15.236Z,32.50
2022-08-08T16:03:20.864Z,32.20
2022-08-08T16:07:25.519Z,32.30
2022-08-08T16:13:09.906Z,32.60
2022-08-08T16:15:57.697Z,32.50
2022-08-08T16:19:59.880Z,32.40
2022-08-08T16:23:49.621Z,32.60
2022-08-08T16:27:58.404Z,32.50
2022-08-08T16:31:59.555Z,33.10
2022-08-08T16:36:03.365Z,32.30
2022-08-08T16:40:20.217Z,32.40
2022-08-08T16:44:27.767Z,32.30
2022-08-08T16:48:36.934Z,32.20
2022-08-08T16:55:05.577Z,33.00
2022-08-08T16:57:01.692Z,32.30
2022-08-08T17:00:51.687Z,32.00
2022-08-08T17:04:55.712Z,32.20
2022-08-08T17:09:00.693Z,32.40
2022-08-08T17:13:07.981Z,32.60
2022-08-08T17:17:41.944Z,32.60
2022-08-08T17:21:18.351Z,32.60
2022-08-08T17:25:47.757Z,32.60
2022-08-08T17:29:43.897Z,32.50
2022-08-08T17:34:53.341Z,33.00
2022-08-08T17:37:55.105Z,33.50
2022-08-08T17:42:02.498Z,33.60
2022-08-08T17:46:04.982Z,34.30
2022-08-08T17:50:11.919Z,34.70
2022-08-08T17:54:26.040Z,35.50
2022-08-08T17:58:31.177Z,35.00
2022-08-08T18:02:37.940Z,34.80
2022-08-08T18:06:43.175Z,35.20
2022-08-08T18:10:54.114Z,35.20
2022-08-08T18:14:53.068Z,35.40
2022-08-08T18:19:00.308Z,36.00
2022-08-08T18:23:06.635Z,35.90
2022-08-08T18:27:17.235Z,36.30
2022-08-08T18:31:18.874Z,36.60
2022-08-08T18:35:34.211Z,36.80
2022-08-08T18:39:36.416Z,37.30
2022-08-08T18:43:43.387Z,37.50
2022-08-08T18:47:47.017Z,37.70
2022-08-08T18:51:54.535Z,38.10
2022-08-08T18:55:53.913Z,39.10
2022-08-08T18:59:59.266Z,39.00
2022-08-08T19:04:10.891Z,39.10
2022-08-08T19:08:24.708Z,39.50
2022-08-08T19:12:26.305Z,39.80
2022-08-08T19:16:28.411Z,40.10
2022-08-08T19:20:32.131Z,40.20
2022-08-08T19:24:42.461Z,40.60
2022-08-08T19:28:36.569Z,40.80
2022-08-08T19:32:37.906Z,40.90
2022-08-08T19:36:39.127Z,41.20
2022-08-08T19:40:42.505Z,41.30
2022-08-08T19:44:46.234Z,41.50
2022-08-08T19:48:48.230Z,41.70
2022-08-08T19:52:59.391Z,41.70
2022-08-08T19:56:52.983Z,42.00
2022-08-08T20:00:54.190Z,42.20
2022-08-08T20:04:55.310Z,42.10
2022-08-08T20:08:57.855Z,42.20
2022-08-08T20:14:12.019Z,42.50
2022-08-08T20:17:03.730Z,42.80
2022-08-08T20:21:05.815Z,42.80
2022-08-08T20:25:08.270Z,43.00
2022-08-08T20:29:11.642Z,43.00
2022-08-08T20:37:15.319Z,43.40
2022-08-08T20:41:19.153Z,43.40
2022-08-08T20:45:55.057Z,43.10
2022-08-08T20:49:24.487Z,43.40
2022-08-08T20:54:00.514Z,43.70
2022-08-08T20:57:31.007Z,43.80
2022-08-08T21:01:44.150Z,43.90
2022-08-08T21:05:58.483Z,44.20
2022-08-08T21:10:01.405Z,44.40
2022-08-08T21:13:43.226Z,44.60
2022-08-08T21:17:45.178Z,44.70
2022-08-08T21:21:55.479Z,45.50
2022-08-08T21:25:56.886Z,45.00
2022-08-08T21:30:04.492Z,45.00
2022-08-08T21:34:02.127Z,45.10
2022-08-08T21:38:05.637Z,45.30
2022-08-08T21:42:09.064Z,45.40
2022-08-08T21:48:08.147Z,45.40
2022-08-08T21:50:15.339Z,45.70
2022-08-08T21:54:54.172Z,45.90
2022-08-08T21:58:24.834Z,46.20
2022-08-08T22:02:25.956Z,46.60
2022-08-08T22:06:29.460Z,46.90
2022-08-08T22:10:33.593Z,47.20
2022-08-08T22:14:36.681Z,47.30
2022-08-08T22:18:38.211Z,47.60
2022-08-08T22:22:41.084Z,47.70
2022-08-08T22:27:02.474Z,47.70
2022-08-08T22:30:51.027Z,47.50
2022-08-08T22:34:51.576Z,47.60
2022-08-08T22:38:53.173Z,47.90
2022-08-08T22:42:54.714Z,48.30
2022-08-08T22:46:57.237Z,48.40
2022-08-08T22:50:59.549Z,48.30
2022-08-08T22:55:05.594Z,48.40
2022-08-08T22:59:07.305Z,48.30
2022-08-08T23:03:10.489Z,48.50
2022-08-08T23:11:14.369Z,48.70
2022-08-08T23:16:38.460Z,48.80
2022-08-08T23:19:20.714Z,48.90
2022-08-08T23:23:22.909Z,49.10
2022-08-08T23:27:37.714Z,49.40
2022-08-08T23:31:27.335Z,49.80
2022-08-08T23:35:34.411Z,50.30
2022-08-08T23:39:42.250Z,50.30
2022-08-08T23:43:45.605Z,50.70
2022-08-08T23:49:01.625Z,50.80
2022-08-08T23:52:05.037Z,51.00
2022-08-08T23:55:49.443Z,51.20
